ENQA

Troll A Platform Heliport

Norway
METAR ENQA 180250Z AUTO 33024KT 9999NDV OVC033/// 06/00 Q1012 W06/S5
Observed Flight Rules
Dec-18 @ 02:50 UTC (15 minutes ago)
Wind Clouds
330° at 24 knots
  • Overcast at 3,300' AGL
Temperatures Readings
Current 6°C / 43°F
Dewpoint 0°C / 32°F
Humidity 66%
Altimeter 29.88" Hg
Pressure 1012 hPa
Elevation 20
METAR ENQA 180250Z AUTO 33024KT 9999NDV OVC033/// 06/00 Q1012 W06/S5
Observed Flight Rules
Dec-18 @ 02:50 UTC
(15 minutes ago)
Wind
330° at 24 knots
Clouds
  • Overcast at 3,300' AGL
Temperature Dewpoint
6°C / 43°F 0°C / 32°F
Humidity Altimeter Pressure
66% 29.88" Hg 1012 hPa